Time;durP1;ratioP1;P1;durP2;ratioP2;P2;SDS_P1;SDS_P2;PMS_P1;PMS_P2;Temp;Humidity;BMP_temperature;BMP_pressure;BME280_temperature;BME280_humidity;BME280_pressure;Samples;Min_cycle;Max_cycle;Signal;HPM_P1;HPM_P2
2023/06/07 00:00:29;;;;;;;6.97;3.42;;;;;;;;;;4936417;29;20016;-81
2023/06/07 00:02:59;;;;;;;4.38;3.55;;;;;;;;;;4939591;29;20035;-82
2023/06/07 00:05:25;;;;;;;4.18;3.17;;;;;;;;;;4936302;29;20020;-81
2023/06/07 00:07:51;;;;;;;2.75;2.55;;;;;;;;;;4935089;29;20052;-82
2023/06/07 00:10:18;;;;;;;6.97;3.75;;;;;;;;;;4935466;29;20087;-81
2023/06/07 00:12:44;;;;;;;7.00;3.65;;;;;;;;;;4937147;29;20047;-82
2023/06/07 00:15:28;;;;;;;7.90;4.28;;;;;;;;;;4938418;29;20040;-82
2023/06/07 00:17:55;;;;;;;3.80;3.00;;;;;;;;;;4936921;29;20083;-81
2023/06/07 00:20:24;;;;;;;4.22;2.88;;;;;;;;;;4937142;29;20038;-81
2023/06/07 00:22:55;;;;;;;7.00;3.03;;;;;;;;;;4936353;29;20036;-82
2023/06/07 00:25:23;;;;;;;3.60;2.90;;;12.80;99.90;;;;;;4936078;29;20024;-82
2023/06/07 00:27:52;;;;;;;4.38;3.60;;;;;;;;;;4935931;29;20036;-80
2023/06/07 00:30:19;;;;;;;5.18;3.30;;;;;;;;;;4936056;29;20307;-82
2023/06/07 00:32:45;;;;;;;3.38;2.58;;;;;;;;;;4936333;29;20020;-81
2023/06/07 00:35:11;;;;;;;3.97;3.35;;;12.60;99.90;;;;;;4936760;29;20031;-80
2023/06/07 00:37:38;;;;;;;3.50;3.20;;;;;;;;;;4937822;29;20025;-82
2023/06/07 00:40:05;;;;;;;3.13;2.83;;;;;;;;;;4936974;29;20036;-81
2023/06/07 00:42:32;;;;;;;6.10;4.03;;;12.60;99.90;;;;;;4937437;29;20031;-81
2023/06/07 00:44:58;;;;;;;4.13;2.75;;;;;;;;;;4939399;29;20076;-81
2023/06/07 00:47:25;;;;;;;6.60;3.20;;;;;;;;;;4939586;29;20096;-80
2023/06/07 00:49:52;;;;;;;4.90;3.38;;;;;;;;;;4940271;29;20040;-80
2023/06/07 00:52:18;;;;;;;6.97;2.95;;;;;;;;;;4923578;29;20039;-82
2023/06/07 00:54:44;;;;;;;3.25;2.70;;;;;;;;;;4937080;29;20035;-81
2023/06/07 00:57:11;;;;;;;5.63;2.95;;;;;;;;;;4936245;29;20095;-80
2023/06/07 00:59:38;;;;;;;8.63;4.07;;;12.60;99.90;;;;;;4936128;29;20039;-81
2023/06/07 01:02:06;;;;;;;4.50;3.25;;;12.50;99.90;;;;;;4935919;29;20024;-81
2023/06/07 01:04:34;;;;;;;10.60;3.55;;;;;;;;;;4934680;29;20036;-82
2023/06/07 01:07:02;;;;;;;3.30;3.00;;;;;;;;;;4935415;29;20031;-81
2023/06/07 01:09:29;;;;;;;4.03;3.28;;;12.50;99.90;;;;;;4935358;29;20192;-81
2023/06/07 01:11:56;;;;;;;8.10;3.90;;;12.40;99.90;;;;;;4934794;29;20024;-80
2023/06/07 01:14:23;;;;;;;3.60;2.78;;;;;;;;;;4935663;29;20052;-82
2023/06/07 01:16:52;;;;;;;3.55;3.15;;;12.40;99.90;;;;;;4939739;29;20070;-81
2023/06/07 01:19:21;;;;;;;5.22;3.42;;;12.40;99.90;;;;;;4939089;29;20028;-81
2023/06/07 01:21:51;;;;;;;4.43;3.22;;;12.40;99.90;;;;;;4939014;29;20024;-81
2023/06/07 01:24:18;;;;;;;5.75;3.13;;;;;;;;;;4937917;29;20331;-81
2023/06/07 01:26:46;;;;;;;5.43;3.20;;;12.40;99.90;;;;;;4921874;29;20058;-80
2023/06/07 01:29:19;;;;;;;4.28;3.33;;;;;;;;;;4937175;29;20021;-81
2023/06/07 01:31:49;;;;;;;4.55;3.28;;;12.20;99.90;;;;;;4939981;29;20039;-82
2023/06/07 01:34:15;;;;;;;3.78;3.08;;;;;;;;;;4937582;29;20299;-81
2023/06/07 01:36:41;;;;;;;5.60;3.47;;;;;;;;;;4939453;29;20020;-81
2023/06/07 01:39:10;;;;;;;4.57;3.00;;;12.10;99.90;;;;;;4939370;29;20361;-81
2023/06/07 01:41:58;;;;;;;3.42;2.97;;;12.20;99.90;;;;;;4940330;29;20048;-81
2023/06/07 01:44:25;;;;;;;3.05;2.75;;;;;;;;;;4938712;29;20059;-81
2023/06/07 01:46:52;;;;;;;4.57;3.10;;;;;;;;;;4940914;29;20109;-81
2023/06/07 01:49:21;;;;;;;7.13;3.67;;;12.20;99.90;;;;;;4941614;29;20099;-81
2023/06/07 01:51:48;;;;;;;4.03;3.00;;;;;;;;;;4941597;29;20030;-82
2023/06/07 01:54:15;;;;;;;3.47;2.70;;;12.10;99.90;;;;;;4939919;29;20019;-81
2023/06/07 01:56:41;;;;;;;3.75;2.95;;;;;;;;;;4939292;29;20076;-81
2023/06/07 01:59:33;;;;;;;4.00;3.05;;;12.00;99.90;;;;;;4934737;29;20305;-81
2023/06/07 02:02:15;;;;;;;4.90;3.50;;;12.00;99.90;;;;;;4936124;29;20035;-82
2023/06/07 02:04:46;;;;;;;5.07;3.20;;;12.00;99.90;;;;;;4938136;29;20092;-82
2023/06/07 02:07:24;;;;;;;4.88;3.70;;;12.10;99.90;;;;;;4938871;29;20040;-82
2023/06/07 02:09:51;;;;;;;3.50;3.17;;;12.10;99.90;;;;;;4921859;29;20024;-82
2023/06/07 02:12:18;;;;;;;5.60;3.60;;;;;;;;;;4920247;29;20024;-82
2023/06/07 02:14:45;;;;;;;4.68;3.75;;;;;;;;;;4937115;29;20058;-80
2023/06/07 02:17:12;;;;;;;3.30;3.00;;;;;;;;;;4937744;29;20143;-81
2023/06/07 02:19:38;;;;;;;3.15;2.90;;;;;;;;;;4937933;29;20032;-81
2023/06/07 02:22:05;;;;;;;5.57;3.47;;;;;;;;;;4937820;29;20023;-81
2023/06/07 02:24:31;;;;;;;4.30;3.55;;;;;;;;;;4938818;29;20009;-81
2023/06/07 02:26:57;;;;;;;8.38;3.90;;;;;;;;;;4938246;29;20034;-81
2023/06/07 02:29:23;;;;;;;8.00;3.83;;;;;;;;;;4936107;29;20016;-81
2023/06/07 02:31:52;;;;;;;4.07;3.45;;;;;;;;;;4935754;29;20020;-81
2023/06/07 02:34:18;;;;;;;3.97;2.97;;;;;;;;;;4936061;29;20089;-81
2023/06/07 02:36:46;;;;;;;3.72;2.88;;;;;;;;;;4934421;29;20020;-81
2023/06/07 02:39:12;;;;;;;3.60;3.22;;;;;;;;;;4935343;29;20024;-81
2023/06/07 02:41:38;;;;;;;4.18;3.17;;;;;;;;;;4935540;29;20118;-82
2023/06/07 02:44:05;;;;;;;5.57;3.42;;;;;;;;;;4935414;29;20071;-82
2023/06/07 02:46:31;;;;;;;2.80;2.60;;;;;;;;;;4934990;29;20232;-81
2023/06/07 02:48:57;;;;;;;3.22;2.92;;;;;;;;;;4934444;29;20040;-82
2023/06/07 02:51:27;;;;;;;6.43;3.45;;;;;;;;;;4935476;29;20300;-82
2023/06/07 02:53:53;;;;;;;5.43;3.15;;;;;;;;;;4933251;29;20031;-81
2023/06/07 02:56:19;;;;;;;4.55;3.58;;;;;;;;;;4932773;29;20023;-81
2023/06/07 02:58:45;;;;;;;5.65;3.15;;;;;;;;;;4932872;29;20084;-81
2023/06/07 03:01:11;;;;;;;5.18;3.72;;;;;;;;;;4932063;29;20304;-81
2023/06/07 03:03:38;;;;;;;4.40;3.90;;;11.60;99.90;;;;;;4932447;29;20055;-81
2023/06/07 03:06:09;;;;;;;4.32;3.78;;;;;;;;;;4934051;29;20059;-81
2023/06/07 03:08:37;;;;;;;8.57;3.90;;;;;;;;;;4935240;29;20068;-81
2023/06/07 03:11:03;;;;;;;3.78;3.03;;;11.50;99.90;;;;;;4937088;29;20091;-81
2023/06/07 03:13:29;;;;;;;4.63;3.63;;;;;;;;;;4936686;29;20017;-81
2023/06/07 03:15:55;;;;;;;4.28;3.22;;;;;;;;;;4937349;29;20024;-81
2023/06/07 03:18:23;;;;;;;6.75;3.58;;;;;;;;;;4939199;29;20383;-81
2023/06/07 03:20:49;;;;;;;5.70;3.35;;;;;;;;;;4937851;29;20091;-81
2023/06/07 03:23:15;;;;;;;4.32;3.85;;;;;;;;;;4935639;29;20059;-81
2023/06/07 03:25:41;;;;;;;4.57;3.67;;;;;;;;;;4933445;29;20024;-81
2023/06/07 03:28:07;;;;;;;4.45;3.72;;;11.30;99.90;;;;;;4933581;29;20063;-81
2023/06/07 03:30:34;;;;;;;5.07;3.72;;;;;;;;;;4933435;29;20261;-81
2023/06/07 03:33:00;;;;;;;4.20;3.80;;;;;;;;;;4917055;29;20028;-81
2023/06/07 03:35:26;;;;;;;4.47;3.63;;;;;;;;;;4933836;29;20076;-81
2023/06/07 03:37:53;;;;;;;4.90;3.60;;;;;;;;;;4935001;29;20040;-81
2023/06/07 03:40:23;;;;;;;3.35;3.15;;;;;;;;;;4933632;29;20047;-82
2023/06/07 03:42:49;;;;;;;9.70;4.65;;;;;;;;;;4933264;29;20079;-80
2023/06/07 03:45:16;;;;;;;4.88;4.35;;;11.30;99.90;;;;;;4932172;29;20070;-81
2023/06/07 03:47:42;;;;;;;5.75;3.60;;;;;;;;;;4915572;29;20052;-81
2023/06/07 03:50:08;;;;;;;7.85;4.00;;;11.30;99.90;;;;;;4935767;29;20020;-81
2023/06/07 03:52:34;;;;;;;5.20;3.83;;;;;;;;;;4935332;29;20028;-81
2023/06/07 03:55:00;;;;;;;6.53;4.13;;;;;;;;;;4934829;29;20031;-80
2023/06/07 03:57:26;;;;;;;6.05;4.05;;;;;;;;;;4933852;29;20099;-81
2023/06/07 03:59:52;;;;;;;6.72;3.67;;;;;;;;;;4930647;29;20020;-80
2023/06/07 04:02:17;;;;;;;5.13;3.88;;;11.70;99.90;;;;;;4932765;29;20028;-80
2023/06/07 04:04:44;;;;;;;5.18;3.40;;;;;;;;;;4935962;29;20036;-80
2023/06/07 04:07:16;;;;;;;4.68;3.17;;;12.00;99.90;;;;;;4937468;29;20024;-80
2023/06/07 04:09:43;;;;;;;7.35;4.40;;;12.10;99.90;;;;;;4936743;29;20023;-81
2023/06/07 04:12:10;;;;;;;5.25;3.45;;;;;;;;;;4906232;29;20115;-81
2023/06/07 04:14:36;;;;;;;4.05;2.97;;;;;;;;;;4937824;29;20038;-81
2023/06/07 04:17:02;;;;;;;3.50;3.20;;;;;;;;;;4939243;29;20024;-82
2023/06/07 04:19:28;;;;;;;5.25;3.50;;;;;;;;;;4942337;29;20083;-81
2023/06/07 04:21:54;;;;;;;6.63;3.83;;;;;;;;;;4942633;29;20017;-82
2023/06/07 04:24:20;;;;;;;5.75;4.38;;;;;;;;;;4941923;29;20055;-82
2023/06/07 04:26:56;;;;;;;5.28;3.70;;;13.10;99.90;;;;;;4941946;29;20032;-81
2023/06/07 04:29:25;;;;;;;5.00;4.60;;;;;;;;;;4941286;29;20036;-81
2023/06/07 04:31:52;;;;;;;3.90;3.45;;;13.20;99.90;;;;;;4941222;29;20039;-81
2023/06/07 04:34:21;;;;;;;5.55;3.85;;;13.40;99.90;;;;;;4925427;29;20133;-81
2023/06/07 04:36:49;;;;;;;4.35;3.95;;;;;;;;;;4923951;29;20012;-80
2023/06/07 04:39:18;;;;;;;5.50;3.60;;;13.70;99.90;;;;;;4934940;29;20044;-81
2023/06/07 04:41:45;;;;;;;4.45;3.60;;;14.00;99.90;;;;;;4918090;29;20091;-80
2023/06/07 04:44:11;;;;;;;3.35;2.97;;;14.20;99.90;;;;;;4912104;29;20353;-84
2023/06/07 04:46:39;;;;;;;8.73;3.17;;;14.60;99.90;;;;;;4910222;29;20030;-80
2023/06/07 04:49:05;;;;;;;4.43;3.20;;;14.70;99.90;;;;;;4926956;29;20056;-81
2023/06/07 04:51:31;;;;;;;4.43;3.90;;;14.80;99.90;;;;;;4910277;29;20040;-80
2023/06/07 04:54:01;;;;;;;6.72;3.90;;;14.90;99.90;;;;;;4926013;29;20038;-82
2023/06/07 04:56:27;;;;;;;4.47;3.20;;;14.90;99.90;;;;;;4925212;29;20032;-83
2023/06/07 04:58:53;;;;;;;4.00;3.10;;;15.00;99.90;;;;;;4926296;29;20038;-81
2023/06/07 05:01:19;;;;;;;3.60;3.30;;;15.10;99.90;;;;;;4926350;29;20020;-84
2023/06/07 05:03:45;;;;;;;4.95;3.60;;;15.00;99.90;;;;;;4926995;29;20094;-82
2023/06/07 05:06:11;;;;;;;4.72;3.72;;;14.90;99.90;;;;;;4924871;29;20028;-82
2023/06/07 05:08:36;;;;;;;5.65;3.42;;;15.00;99.90;;;;;;4926093;29;20032;-82
2023/06/07 05:11:02;;;;;;;6.00;3.55;;;15.10;99.90;;;;;;4925477;29;20024;-82
2023/06/07 05:13:28;;;;;;;4.65;3.20;;;15.20;99.90;;;;;;4925964;29;20028;-82
2023/06/07 05:15:54;;;;;;;7.25;3.45;;;15.20;99.90;;;;;;4925791;29;20144;-81
2023/06/07 05:18:20;;;;;;;3.13;2.83;;;15.30;99.90;;;;;;4925824;29;20028;-83
2023/06/07 05:20:49;;;;;;;4.43;3.35;;;15.60;99.90;;;;;;4925832;29;20099;-81
2023/06/07 05:23:17;;;;;;;5.18;3.50;;;15.70;99.90;;;;;;4926109;29;20035;-81
2023/06/07 05:25:46;;;;;;;8.98;4.22;;;15.80;99.90;;;;;;4924547;29;20478;-83
2023/06/07 05:28:12;;;;;;;5.75;3.33;;;15.80;99.90;;;;;;4926186;29;20103;-82
2023/06/07 05:30:39;;;;;;;5.93;3.22;;;15.90;99.90;;;;;;4925284;29;20095;-81
2023/06/07 05:33:06;;;;;;;5.40;3.85;;;16.00;99.90;;;;;;4924679;29;20342;-83
2023/06/07 05:35:35;;;;;;;4.18;3.78;;;16.10;99.90;;;;;;4925030;29;20243;-82
2023/06/07 05:38:01;;;;;;;5.07;3.63;;;16.40;99.90;;;;;;4925068;29;20035;-82
2023/06/07 05:40:26;;;;;;;4.90;3.85;;;16.20;99.90;;;;;;4925020;29;20031;-82
2023/06/07 05:42:54;;;;;;;5.82;4.22;;;16.20;99.90;;;;;;4924718;29;20202;-83
2023/06/07 05:45:20;;;;;;;6.15;3.60;;;16.30;99.90;;;;;;4924622;29;20059;-82
2023/06/07 05:47:45;;;;;;;5.28;3.90;;;16.30;99.90;;;;;;4926222;29;20043;-82
2023/06/07 05:50:12;;;;;;;5.82;3.97;;;16.40;99.90;;;;;;4926239;29;20367;-82
2023/06/07 05:52:40;;;;;;;6.90;4.07;;;16.50;99.90;;;;;;4922346;29;20566;-79
2023/06/07 05:55:06;;;;;;;8.10;3.92;;;16.40;99.90;;;;;;4923798;29;20020;-78
2023/06/07 05:57:32;;;;;;;5.88;4.07;;;16.50;99.90;;;;;;4908226;29;20316;-79
2023/06/07 05:59:58;;;;;;;4.22;3.70;;;16.50;99.90;;;;;;4924209;29;20038;-78
2023/06/07 06:02:24;;;;;;;6.40;3.80;;;16.50;99.90;;;;;;4924380;29;20027;-82
2023/06/07 06:04:52;;;;;;;5.55;4.10;;;16.50;99.90;;;;;;4923965;29;20385;-82
2023/06/07 06:07:19;;;;;;;6.30;3.55;;;16.80;99.90;;;;;;4923588;29;20055;-81
2023/06/07 06:09:45;;;;;;;3.90;3.40;;;17.00;99.90;;;;;;4923446;29;20044;-82
2023/06/07 06:12:11;;;;;;;8.93;4.22;;;17.20;99.90;;;;;;4923687;29;20016;-79
2023/06/07 06:14:37;;;;;;;5.03;3.72;;;17.50;99.90;;;;;;4923470;29;20103;-79
2023/06/07 06:17:03;;;;;;;7.68;4.30;;;17.60;99.90;;;;;;4923734;29;20044;-79
2023/06/07 06:19:29;;;;;;;4.65;3.80;;;17.80;99.90;;;;;;4924175;29;20015;-81
2023/06/07 06:21:55;;;;;;;5.43;4.47;;;18.20;99.90;;;;;;4923748;29;20024;-78
2023/06/07 06:24:21;;;;;;;4.63;3.22;;;;;;;;;;4932345;29;20032;-82
2023/06/07 06:26:46;;;;;;;5.88;3.95;;;17.90;99.90;;;;;;4931823;29;20035;-79
2023/06/07 06:29:12;;;;;;;5.93;4.47;;;17.80;99.90;;;;;;4928988;29;20095;-80
2023/06/07 06:31:39;;;;;;;6.13;3.95;;;17.80;99.90;;;;;;4930643;29;20204;-79
2023/06/07 06:34:07;;;;;;;6.40;4.05;;;17.70;99.90;;;;;;4928857;29;20015;-78
2023/06/07 06:36:33;;;;;;;5.57;3.80;;;17.80;99.90;;;;;;4925415;29;20024;-80
2023/06/07 06:38:58;;;;;;;9.60;3.70;;;18.20;99.90;;;;;;4923298;29;20050;-82
2023/06/07 06:41:24;;;;;;;10.00;4.47;;;19.20;99.90;;;;;;4923026;29;20293;-79
2023/06/07 06:43:50;;;;;;;6.15;4.65;;;20.40;99.90;;;;;;4922930;29;20054;-82
2023/06/07 06:46:15;;;;;;;4.72;3.97;;;20.90;97.20;;;;;;4923547;29;20071;-79
2023/06/07 06:48:41;;;;;;;4.93;3.67;;;22.50;90.10;;;;;;4924412;29;20243;-80
2023/06/07 06:51:07;;;;;;;8.00;3.88;;;22.60;90.40;;;;;;4924503;29;20040;-80
2023/06/07 06:53:33;;;;;;;6.85;4.05;;;23.30;85.70;;;;;;4924853;29;20020;-80
2023/06/07 06:55:58;;;;;;;5.53;4.10;;;23.40;82.30;;;;;;4923137;29;20057;-76
2023/06/07 06:58:24;;;;;;;4.75;3.55;;;24.30;76.50;;;;;;4923737;29;20020;-85
2023/06/07 07:00:50;;;;;;;3.83;3.33;;;24.10;73.60;;;;;;4923503;29;20024;-80
2023/06/07 07:03:16;;;;;;;9.27;3.47;;;24.10;73.40;;;;;;4924475;29;20027;-79
2023/06/07 07:05:41;;;;;;;7.15;3.38;;;23.90;72.70;;;;;;4923284;29;20024;-80
2023/06/07 07:08:07;;;;;;;5.28;3.60;;;24.50;72.20;;;;;;4923164;29;20111;-78
2023/06/07 07:10:33;;;;;;;4.47;3.20;;;25.10;69.90;;;;;;4922734;29;20032;-76
2023/06/07 07:12:59;;;;;;;3.80;2.88;;;;;;;;;;4924206;29;20137;-78
2023/06/07 07:15:27;;;;;;;5.10;2.83;;;25.50;65.00;;;;;;4923274;29;20041;-78
2023/06/07 07:17:53;;;;;;;3.20;2.10;;;25.70;63.50;;;;;;4922706;29;20205;-78
2023/06/07 07:20:19;;;;;;;4.93;2.50;;;26.00;63.40;;;;;;4924219;29;20107;-77
2023/06/07 07:22:46;;;;;;;2.78;2.53;;;26.30;63.20;;;;;;4922465;29;20026;-78
2023/06/07 07:25:12;;;;;;;5.72;2.95;;;25.80;63.20;;;;;;4918295;29;20082;-80
2023/06/07 07:27:38;;;;;;;4.00;3.30;;;25.70;64.20;;;;;;4922528;29;20100;-80
2023/06/07 07:30:05;;;;;;;4.25;2.95;;;25.30;66.00;;;;;;4921670;29;20328;-79
2023/06/07 07:32:34;;;;;;;4.88;2.67;;;25.70;64.90;;;;;;4906510;29;20103;-75
2023/06/07 07:35:00;;;;;;;2.88;2.50;;;26.00;64.90;;;;;;4914809;29;20028;-77
2023/06/07 07:37:28;;;;;;;2.67;2.45;;;26.40;61.70;;;;;;4920043;29;20047;-78
2023/06/07 07:39:54;;;;;;;4.40;2.70;;;25.70;63.00;;;;;;4920596;29;20387;-80
2023/06/07 07:42:19;;;;;;;2.35;2.10;;;25.90;64.50;;;;;;4922015;29;20028;-79
2023/06/07 07:44:45;;;;;;;3.47;1.95;;;26.50;62.30;;;;;;4923335;29;20273;-79
2023/06/07 07:47:11;;;;;;;2.60;2.25;;;26.70;61.00;;;;;;4921845;29;20027;-78
2023/06/07 07:49:38;;;;;;;4.35;2.20;;;26.90;62.50;;;;;;4920865;29;20103;-85
2023/06/07 07:52:03;;;;;;;3.78;2.55;;;26.70;60.40;;;;;;4922716;29;20012;-77
2023/06/07 07:54:29;;;;;;;7.35;2.80;;;25.90;61.60;;;;;;4925861;29;20025;-79
2023/06/07 07:56:55;;;;;;;6.03;2.70;;;25.90;61.90;;;;;;4924520;29;20223;-77
2023/06/07 07:59:21;;;;;;;6.25;2.67;;;26.20;61.10;;;;;;4925270;29;20347;-78
2023/06/07 08:01:49;;;;;;;4.60;2.53;;;26.30;61.90;;;;;;4925254;29;20023;-79
2023/06/07 08:04:14;;;;;;;4.13;2.30;;;26.50;61.80;;;;;;4923596;29;20027;-77
2023/06/07 08:06:40;;;;;;;5.70;2.63;;;;;;;;;;4921517;29;20028;-80
2023/06/07 08:09:06;;;;;;;4.45;2.28;;;26.80;59.20;;;;;;4919647;29;20114;-79
2023/06/07 08:11:32;;;;;;;3.78;2.78;;;26.40;60.20;;;;;;4908329;29;20020;-81
2023/06/07 08:13:57;;;;;;;3.35;2.75;;;25.70;61.20;;;;;;4924306;29;20044;-80
2023/06/07 08:16:23;;;;;;;2.65;2.35;;;25.30;61.80;;;;;;4926815;29;20020;-82
2023/06/07 08:18:55;;;;;;;3.20;1.90;;;25.30;61.70;;;;;;4916972;29;20028;-83
2023/06/07 08:21:22;;;;;;;4.00;2.20;;;25.50;61.20;;;;;;4923300;29;20422;-82
2023/06/07 08:24:00;;;;;;;1.98;1.88;;;25.30;61.00;;;;;;4912194;29;20028;-80
2023/06/07 08:26:47;;;;;;;6.70;2.17;;;24.70;61.20;;;;;;4934668;29;20020;-80
2023/06/07 08:29:12;;;;;;;2.60;2.15;;;23.90;62.50;;;;;;4924212;29;20032;-81
2023/06/07 08:31:43;;;;;;;2.13;1.92;;;;;;;;;;4908150;29;20197;-83
2023/06/07 08:34:09;;;;;;;1.77;1.67;;;24.40;62.20;;;;;;4924928;29;20114;-79
2023/06/07 08:36:36;;;;;;;4.45;2.22;;;25.00;61.70;;;;;;4905049;29;20036;-79
2023/06/07 08:39:02;;;;;;;3.78;2.50;;;25.50;60.60;;;;;;4902493;29;20020;-80
2023/06/07 08:41:28;;;;;;;2.67;2.47;;;25.80;60.50;;;;;;4908395;29;20024;-80
2023/06/07 08:43:53;;;;;;;2.45;2.25;;;25.50;60.60;;;;;;4903117;29;20548;-79
2023/06/07 08:46:20;;;;;;;4.22;2.92;;;25.80;59.60;;;;;;4897673;29;20412;-82
2023/06/07 08:48:48;;;;;;;3.63;3.05;;;25.80;61.00;;;;;;4897572;29;20048;-81
2023/06/07 08:51:16;;;;;;;2.85;2.50;;;25.30;61.10;;;;;;4900839;29;20122;-79
2023/06/07 08:54:00;;;;;;;4.70;2.60;;;25.80;61.30;;;;;;4926461;29;20086;-79
2023/06/07 08:56:28;;;;;;;2.97;2.58;;;26.40;59.50;;;;;;4919678;29;20020;-78
2023/06/07 08:58:54;;;;;;;11.98;3.38;;;26.40;60.60;;;;;;4896322;29;20469;-82
2023/06/07 09:01:21;;;;;;;5.43;2.95;;;25.70;60.70;;;;;;4898711;29;20050;-81
2023/06/07 09:03:54;;;;;;;2.75;2.35;;;25.00;60.30;;;;;;4900802;29;20028;-81
2023/06/07 09:06:21;;;;;;;4.38;3.05;;;25.00;61.10;;;;;;4906257;29;20042;-82
2023/06/07 09:09:11;;;;;;;4.60;2.92;;;24.70;63.00;;;;;;4919288;29;20036;-82
2023/06/07 09:11:39;;;;;;;10.00;3.72;;;24.50;61.70;;;;;;4915318;29;20024;-81
2023/06/07 09:14:07;;;;;;;6.78;2.78;;;24.50;62.00;;;;;;4923044;29;20032;-82
2023/06/07 09:16:32;;;;;;;4.60;2.67;;;25.10;61.50;;;;;;4908387;29;20032;-84
2023/06/07 09:18:58;;;;;;;3.08;2.35;;;25.40;61.60;;;;;;4905819;29;20052;-80
2023/06/07 09:21:26;;;;;;;4.63;2.75;;;25.70;58.40;;;;;;4908377;29;20095;-80
2023/06/07 09:23:53;;;;;;;4.43;2.45;;;25.70;60.00;;;;;;4924186;29;20419;-80
2023/06/07 09:26:20;;;;;;;15.68;3.22;;;25.80;58.40;;;;;;4897860;29;20482;-79
2023/06/07 09:28:46;;;;;;;3.88;2.28;;;25.80;58.80;;;;;;4898500;29;20474;-80
2023/06/07 09:31:13;;;;;;;6.47;2.28;;;26.10;59.80;;;;;;4898305;29;20024;-79
2023/06/07 09:33:39;;;;;;;5.75;2.63;;;26.20;60.40;;;;;;4898145;29;20115;-80
2023/06/07 09:36:11;;;;;;;3.53;2.58;;;26.50;57.90;;;;;;4898066;29;20565;-80
2023/06/07 09:38:37;;;;;;;7.15;2.78;;;26.40;58.70;;;;;;4911829;29;20020;-80
2023/06/07 09:41:07;;;;;;;4.63;2.33;;;26.60;58.50;;;;;;4898190;29;20035;-81
2023/06/07 09:43:55;;;;;;;4.72;1.90;;;26.60;56.60;;;;;;4898110;29;20032;-79
2023/06/07 09:46:21;;;;;;;2.90;2.35;;;26.90;57.40;;;;;;4916041;29;20028;-79
2023/06/07 09:48:47;;;;;;;3.17;2.33;;;27.40;56.40;;;;;;4914850;29;20536;-82
2023/06/07 09:51:14;;;;;;;4.68;2.35;;;27.30;56.40;;;;;;4897773;29;20023;-83
2023/06/07 09:53:56;;;;;;;2.65;2.45;;;26.90;57.40;;;;;;4898093;29;20032;-83
2023/06/07 09:56:23;;;;;;;2.95;2.60;;;26.90;57.80;;;;;;4912297;29;20024;-81
2023/06/07 09:59:07;;;;;;;2.78;2.58;;;27.20;56.50;;;;;;4916798;29;20158;-83
2023/06/07 10:01:37;;;;;;;3.58;2.20;;;26.30;56.60;;;;;;4915345;29;20573;-82
2023/06/07 10:04:05;;;;;;;4.18;2.20;;;26.50;57.80;;;;;;4907147;29;20028;-78
2023/06/07 10:06:34;;;;;;;3.88;2.45;;;26.70;57.10;;;;;;4924641;29;20032;-78
2023/06/07 10:09:03;;;;;;;17.25;7.80;;;27.30;57.20;;;;;;4922797;29;20486;-76
2023/06/07 10:11:33;;;;;;;4.35;2.50;;;27.70;56.00;;;;;;4923122;29;20024;-75
2023/06/07 10:14:08;;;;;;;2.92;2.13;;;28.00;54.70;;;;;;4923826;29;20177;-75
2023/06/07 10:16:36;;;;;;;2.95;2.35;;;28.40;52.60;;;;;;4919189;29;20020;-78
2023/06/07 10:19:21;;;;;;;2.97;2.20;;;29.90;53.20;;;;;;4913207;29;20052;-75
2023/06/07 10:21:50;;;;;;;3.95;2.58;;;28.70;54.00;;;;;;4912323;29;20051;-75
2023/06/07 10:24:29;;;;;;;3.33;2.28;;;28.90;52.40;;;;;;4916676;29;20056;-77
2023/06/07 10:26:59;;;;;;;4.13;2.40;;;28.20;52.60;;;;;;4916100;29;20028;-78
2023/06/07 10:29:52;;;;;;;5.70;2.72;;;27.90;52.60;;;;;;4917517;29;20375;-77
2023/06/07 10:32:33;;;;;;;7.18;4.18;;;27.70;52.70;;;;;;4917025;29;20028;-79
2023/06/07 10:35:00;;;;;;;4.70;3.25;;;28.20;52.80;;;;;;4913717;29;20016;-76
2023/06/07 10:37:30;;;;;;;5.55;3.72;;;29.40;52.20;;;;;;4914916;29;20020;-75
2023/06/07 10:40:05;;;;;;;5.38;2.83;;;29.60;51.10;;;;;;4916719;29;20032;-79
2023/06/07 10:42:32;;;;;;;7.18;2.50;;;28.70;51.20;;;;;;4914601;29;20032;-84
2023/06/07 10:44:58;;;;;;;2.08;1.95;;;28.60;52.60;;;;;;4913482;29;20088;-81
2023/06/07 10:47:27;;;;;;;4.50;2.53;;;28.10;53.30;;;;;;4911375;29;20059;-83
2023/06/07 10:49:54;;;;;;;2.70;2.50;;;27.40;53.80;;;;;;4912301;29;20123;-80
2023/06/07 10:52:20;;;;;;;10.57;2.70;;;27.80;53.30;;;;;;4913692;29;20099;-79
2023/06/07 10:54:46;;;;;;;21.17;6.03;;;28.10;54.00;;;;;;4914373;29;20032;-77
2023/06/07 10:57:12;;;;;;;3.20;2.47;;;27.80;53.80;;;;;;4916187;29;20481;-80
2023/06/07 10:59:39;;;;;;;3.83;2.47;;;28.30;53.80;;;;;;4913939;29;20024;-78
2023/06/07 11:02:26;;;;;;;7.97;2.20;;;28.40;53.00;;;;;;4912322;29;20024;-78
2023/06/07 11:04:58;;;;;;;6.05;2.88;;;29.60;52.90;;;;;;4911636;29;20024;-78
2023/06/07 11:07:31;;;;;;;2.55;2.35;;;30.20;50.20;;;;;;4915438;29;20028;-79
2023/06/07 11:10:03;;;;;;;6.05;2.33;;;30.20;51.10;;;;;;4919326;29;20058;-79
2023/06/07 11:12:40;;;;;;;3.72;2.10;;;29.90;50.00;;;;;;4922403;29;20023;-77
2023/06/07 11:15:21;;;;;;;2.55;2.30;;;30.00;50.00;;;;;;4922021;29;20032;-76
2023/06/07 11:17:53;;;;;;;5.38;2.28;;;30.00;49.90;;;;;;4920686;29;20020;-82
2023/06/07 11:23:21;;;;;;;2.97;2.38;;;29.80;51.70;;;;;;4923782;29;20016;-77
2023/06/07 11:25:53;;;;;;;4.57;2.17;;;30.50;49.60;;;;;;4922833;29;20043;-78
2023/06/07 11:28:22;;;;;;;2.50;2.30;;;30.60;50.40;;;;;;4919164;29;20451;-78
2023/06/07 11:30:50;;;;;;;2.65;2.45;;;31.20;47.20;;;;;;4918583;29;20024;-78
2023/06/07 11:33:16;;;;;;;3.60;2.20;;;31.10;46.50;;;;;;4922744;29;20039;-77
2023/06/07 11:35:42;;;;;;;3.70;2.33;;;31.50;47.50;;;;;;4912488;29;20028;-78
2023/06/07 11:38:08;;;;;;;2.55;2.35;;;32.10;46.50;;;;;;4914560;29;20379;-77
2023/06/07 11:40:34;;;;;;;3.80;2.20;;;31.70;46.90;;;;;;4912835;29;20493;-78
2023/06/07 11:43:02;;;;;;;3.25;2.13;;;30.70;46.70;;;;;;4911910;29;20064;-80
2023/06/07 11:45:33;;;;;;;6.57;2.80;;;30.70;47.10;;;;;;4911969;29;20119;-78
2023/06/07 11:48:03;;;;;;;2.53;2.33;;;30.70;48.00;;;;;;4913622;29;20075;-79
2023/06/07 11:50:29;;;;;;;3.08;2.47;;;31.20;46.70;;;;;;4923795;29;20031;-80
2023/06/07 11:52:55;;;;;;;5.05;2.25;;;31.60;46.40;;;;;;4924792;29;20020;-80
2023/06/07 11:55:21;;;;;;;8.35;2.30;;;30.90;46.80;;;;;;4921076;29;20032;-78
2023/06/07 11:57:51;;;;;;;3.65;2.80;;;30.80;46.70;;;;;;4922678;29;20032;-79
2023/06/07 12:00:23;;;;;;;10.95;3.42;;;31.10;46.70;;;;;;4921205;29;20071;-78
2023/06/07 12:02:50;;;;;;;3.58;2.30;;;31.10;46.40;;;;;;4922728;29;20020;-77
2023/06/07 12:05:17;;;;;;;2.55;2.33;;;30.70;45.30;;;;;;4920023;29;20028;-77
2023/06/07 12:07:52;;;;;;;2.50;2.30;;;30.80;46.30;;;;;;4922476;29;20371;-78
2023/06/07 12:10:23;;;;;;;4.55;2.95;;;30.80;47.40;;;;;;4922821;29;20144;-77
2023/06/07 12:13:07;;;;;;;2.88;2.55;;;30.90;45.60;;;;;;4924517;29;20023;-75
2023/06/07 12:15:34;;;;;;;2.85;2.30;;;30.60;46.50;;;;;;4910280;29;20075;-75
2023/06/07 12:18:01;;;;;;;6.22;2.42;;;31.30;47.90;;;;;;4909663;29;20027;-76
2023/06/07 12:20:28;;;;;;;3.83;2.92;;;31.30;46.10;;;;;;4911549;29;20249;-76
2023/06/07 12:23:05;;;;;;;3.20;2.28;;;31.00;44.40;;;;;;4898730;29;20026;-74
2023/06/07 12:25:31;;;;;;;2.72;2.28;;;30.20;45.30;;;;;;4909878;29;20042;-77
2023/06/07 12:27:57;;;;;;;3.15;2.20;;;30.30;48.00;;;;;;4910513;29;20024;-76
2023/06/07 12:30:32;;;;;;;2.40;2.20;;;30.00;45.80;;;;;;4911030;29;20378;-76
2023/06/07 12:32:59;;;;;;;6.53;2.40;;;30.30;47.70;;;;;;4910510;29;20024;-72
2023/06/07 12:35:24;;;;;;;2.65;2.45;;;30.40;45.80;;;;;;4910311;29;20092;-73
2023/06/07 12:37:50;;;;;;;4.50;2.75;;;30.70;45.80;;;;;;4911136;29;20032;-74
2023/06/07 12:40:16;;;;;;;2.97;2.35;;;30.80;45.70;;;;;;4914433;29;20028;-78
2023/06/07 12:42:41;;;;;;;3.22;2.47;;;30.60;46.90;;;;;;4914175;29;20060;-75
2023/06/07 12:45:08;;;;;;;4.38;2.55;;;30.70;45.40;;;;;;4912668;29;20135;-74
2023/06/07 12:47:34;;;;;;;5.13;3.03;;;31.40;45.70;;;;;;4914371;29;20042;-74
2023/06/07 12:49:59;;;;;;;7.75;2.38;;;32.80;43.10;;;;;;4914347;29;20385;-77
2023/06/07 12:52:25;;;;;;;5.95;2.88;;;32.70;43.80;;;;;;4913525;29;20044;-74
2023/06/07 12:54:51;;;;;;;4.22;2.83;;;33.40;43.00;;;;;;4913354;29;20036;-80
2023/06/07 12:57:17;;;;;;;5.65;2.60;;;32.80;45.50;;;;;;4914142;29;20110;-78
2023/06/07 12:59:43;;;;;;;3.78;2.92;;;;;;;;;;4915291;29;20585;-77
2023/06/07 13:02:10;;;;;;;3.95;3.15;;;33.60;42.50;;;;;;4915527;29;20111;-79
2023/06/07 13:04:36;;;;;;;3.60;2.10;;;33.90;42.00;;;;;;4918595;29;20051;-78
2023/06/07 13:07:01;;;;;;;11.00;2.83;;;33.00;43.30;;;;;;4914507;29;20091;-78
2023/06/07 13:09:27;;;;;;;3.28;2.45;;;32.10;44.60;;;;;;4915253;29;20544;-78
2023/06/07 13:11:53;;;;;;;3.63;2.60;;;32.00;46.10;;;;;;4914730;29;20079;-77
2023/06/07 13:14:19;;;;;;;6.15;3.17;;;31.80;44.90;;;;;;4914502;29;20508;-78
2023/06/07 13:16:45;;;;;;;8.38;2.72;;;31.20;45.60;;;;;;4915512;29;20036;-80
2023/06/07 13:19:11;;;;;;;5.47;2.83;;;31.20;45.30;;;;;;4914639;29;20123;-78
2023/06/07 13:21:39;;;;;;;3.13;2.83;;;32.10;44.40;;;;;;4915012;29;20030;-79